sensor_id;sensor_type;location;lat;lon;timestamp;P1;durP1;ratioP1;P2;durP2;ratioP2
22843;SDS011;11588;51.178;4.852;2023-10-13T00:02:10;2.33;;;0.65;;
22843;SDS011;11588;51.178;4.852;2023-10-13T00:04:37;13.10;;;1.25;;
22843;SDS011;11588;51.178;4.852;2023-10-13T00:07:03;1.00;;;0.75;;
22843;SDS011;11588;51.178;4.852;2023-10-13T00:09:31;0.30;;;0.30;;
22843;SDS011;11588;51.178;4.852;2023-10-13T00:11:59;0.45;;;0.45;;
22843;SDS011;11588;51.178;4.852;2023-10-13T00:14:25;1.08;;;0.68;;
22843;SDS011;11588;51.178;4.852;2023-10-13T00:17:05;1.80;;;0.60;;
22843;SDS011;11588;51.178;4.852;2023-10-13T00:19:44;1.52;;;1.00;;
22843;SDS011;11588;51.178;4.852;2023-10-13T00:22:13;4.63;;;1.75;;
22843;SDS011;11588;51.178;4.852;2023-10-13T00:24:42;0.70;;;0.60;;
22843;SDS011;11588;51.178;4.852;2023-10-13T00:27:10;0.63;;;0.63;;
22843;SDS011;11588;51.178;4.852;2023-10-13T00:29:45;1.45;;;0.77;;
22843;SDS011;11588;51.178;4.852;2023-10-13T00:32:13;1.65;;;1.13;;
22843;SDS011;11588;51.178;4.852;2023-10-13T00:34:39;1.20;;;0.70;;
22843;SDS011;11588;51.178;4.852;2023-10-13T00:37:06;0.25;;;0.25;;
22843;SDS011;11588;51.178;4.852;2023-10-13T00:39:43;3.30;;;1.67;;
22843;SDS011;11588;51.178;4.852;2023-10-13T00:42:12;0.38;;;0.38;;
22843;SDS011;11588;51.178;4.852;2023-10-13T00:44:52;1.80;;;0.63;;
22843;SDS011;11588;51.178;4.852;2023-10-13T00:47:20;1.15;;;0.80;;
22843;SDS011;11588;51.178;4.852;2023-10-13T00:50:10;1.20;;;0.55;;
22843;SDS011;11588;51.178;4.852;2023-10-13T00:52:42;1.45;;;0.30;;
22843;SDS011;11588;51.178;4.852;2023-10-13T00:55:13;2.50;;;0.90;;
22843;SDS011;11588;51.178;4.852;2023-10-13T00:57:40;0.98;;;0.75;;
22843;SDS011;11588;51.178;4.852;2023-10-13T01:00:08;2.53;;;1.00;;
22843;SDS011;11588;51.178;4.852;2023-10-13T01:02:43;2.42;;;0.68;;
22843;SDS011;11588;51.178;4.852;2023-10-13T01:05:09;0.90;;;0.55;;
22843;SDS011;11588;51.178;4.852;2023-10-13T01:07:37;1.23;;;0.90;;
22843;SDS011;11588;51.178;4.852;2023-10-13T01:10:04;0.77;;;0.60;;
22843;SDS011;11588;51.178;4.852;2023-10-13T01:12:31;1.00;;;0.57;;
22843;SDS011;11588;51.178;4.852;2023-10-13T01:15:00;2.80;;;1.48;;
22843;SDS011;11588;51.178;4.852;2023-10-13T01:17:40;6.63;;;0.50;;
22843;SDS011;11588;51.178;4.852;2023-10-13T01:20:13;1.08;;;0.93;;
22843;SDS011;11588;51.178;4.852;2023-10-13T01:22:50;3.50;;;1.95;;
22843;SDS011;11588;51.178;4.852;2023-10-13T01:25:23;0.63;;;0.55;;
22843;SDS011;11588;51.178;4.852;2023-10-13T01:27:53;1.85;;;1.00;;
22843;SDS011;11588;51.178;4.852;2023-10-13T01:30:20;0.68;;;0.52;;
22843;SDS011;11588;51.178;4.852;2023-10-13T01:32:53;1.20;;;1.10;;
22843;SDS011;11588;51.178;4.852;2023-10-13T01:35:20;0.55;;;0.50;;
22843;SDS011;11588;51.178;4.852;2023-10-13T01:37:59;1.25;;;0.52;;
22843;SDS011;11588;51.178;4.852;2023-10-13T01:40:26;5.60;;;0.60;;
22843;SDS011;11588;51.178;4.852;2023-10-13T01:42:55;2.13;;;0.73;;
22843;SDS011;11588;51.178;4.852;2023-10-13T01:45:21;7.18;;;1.20;;
22843;SDS011;11588;51.178;4.852;2023-10-13T01:47:58;1.00;;;0.88;;
22843;SDS011;11588;51.178;4.852;2023-10-13T01:50:25;1.73;;;0.85;;
22843;SDS011;11588;51.178;4.852;2023-10-13T01:52:57;0.95;;;0.75;;
22843;SDS011;11588;51.178;4.852;2023-10-13T01:55:32;1.65;;;1.15;;
22843;SDS011;11588;51.178;4.852;2023-10-13T01:58:12;2.00;;;1.33;;
22843;SDS011;11588;51.178;4.852;2023-10-13T02:00:42;3.53;;;1.20;;
22843;SDS011;11588;51.178;4.852;2023-10-13T02:03:10;6.07;;;0.80;;
22843;SDS011;11588;51.178;4.852;2023-10-13T02:05:44;3.67;;;1.60;;
22843;SDS011;11588;51.178;4.852;2023-10-13T02:08:14;2.95;;;1.42;;
22843;SDS011;11588;51.178;4.852;2023-10-13T02:10:55;0.68;;;0.68;;
22843;SDS011;11588;51.178;4.852;2023-10-13T02:13:23;1.38;;;0.93;;
22843;SDS011;11588;51.178;4.852;2023-10-13T02:15:54;1.42;;;1.15;;
22843;SDS011;11588;51.178;4.852;2023-10-13T02:18:23;4.00;;;1.08;;
22843;SDS011;11588;51.178;4.852;2023-10-13T02:20:53;2.47;;;1.70;;
22843;SDS011;11588;51.178;4.852;2023-10-13T02:23:22;1.95;;;1.10;;
22843;SDS011;11588;51.178;4.852;2023-10-13T02:25:49;2.40;;;1.58;;
22843;SDS011;11588;51.178;4.852;2023-10-13T02:28:18;5.55;;;2.08;;
22843;SDS011;11588;51.178;4.852;2023-10-13T02:30:54;3.90;;;2.03;;
22843;SDS011;11588;51.178;4.852;2023-10-13T02:33:23;2.13;;;1.10;;
22843;SDS011;11588;51.178;4.852;2023-10-13T02:35:59;1.70;;;1.10;;
22843;SDS011;11588;51.178;4.852;2023-10-13T02:38:29;5.55;;;3.15;;
22843;SDS011;11588;51.178;4.852;2023-10-13T02:41:10;2.92;;;1.70;;
22843;SDS011;11588;51.178;4.852;2023-10-13T02:43:37;2.38;;;1.52;;
22843;SDS011;11588;51.178;4.852;2023-10-13T02:46:04;4.10;;;2.45;;
22843;SDS011;11588;51.178;4.852;2023-10-13T02:48:31;6.22;;;2.83;;
22843;SDS011;11588;51.178;4.852;2023-10-13T02:51:07;7.68;;;3.90;;
22843;SDS011;11588;51.178;4.852;2023-10-13T02:53:45;8.20;;;3.80;;
22843;SDS011;11588;51.178;4.852;2023-10-13T02:56:18;5.03;;;3.15;;
22843;SDS011;11588;51.178;4.852;2023-10-13T02:58:50;5.30;;;3.42;;
22843;SDS011;11588;51.178;4.852;2023-10-13T03:01:24;7.53;;;3.38;;
22843;SDS011;11588;51.178;4.852;2023-10-13T03:03:56;8.38;;;4.22;;
22843;SDS011;11588;51.178;4.852;2023-10-13T03:06:25;7.25;;;4.68;;
22843;SDS011;11588;51.178;4.852;2023-10-13T03:09:06;4.82;;;3.28;;
22843;SDS011;11588;51.178;4.852;2023-10-13T03:11:41;6.70;;;4.32;;
22843;SDS011;11588;51.178;4.852;2023-10-13T03:14:09;4.30;;;3.72;;
22843;SDS011;11588;51.178;4.852;2023-10-13T03:16:46;5.65;;;2.83;;
22843;SDS011;11588;51.178;4.852;2023-10-13T03:19:13;7.45;;;3.65;;
22843;SDS011;11588;51.178;4.852;2023-10-13T03:21:39;6.70;;;3.55;;
22843;SDS011;11588;51.178;4.852;2023-10-13T03:24:12;5.75;;;3.55;;
22843;SDS011;11588;51.178;4.852;2023-10-13T03:26:40;9.73;;;5.20;;
22843;SDS011;11588;51.178;4.852;2023-10-13T03:29:12;5.30;;;4.32;;
22843;SDS011;11588;51.178;4.852;2023-10-13T03:31:40;5.15;;;3.08;;
22843;SDS011;11588;51.178;4.852;2023-10-13T03:34:06;5.60;;;3.17;;
22843;SDS011;11588;51.178;4.852;2023-10-13T03:36:38;9.07;;;4.35;;
22843;SDS011;11588;51.178;4.852;2023-10-13T03:39:15;4.75;;;3.58;;
22843;SDS011;11588;51.178;4.852;2023-10-13T03:41:41;7.53;;;3.33;;
22843;SDS011;11588;51.178;4.852;2023-10-13T03:44:14;6.55;;;3.17;;
22843;SDS011;11588;51.178;4.852;2023-10-13T03:46:46;5.28;;;3.17;;
22843;SDS011;11588;51.178;4.852;2023-10-13T03:49:15;3.38;;;3.05;;
22843;SDS011;11588;51.178;4.852;2023-10-13T03:51:48;6.53;;;2.33;;
22843;SDS011;11588;51.178;4.852;2023-10-13T03:54:15;18.23;;;4.05;;
22843;SDS011;11588;51.178;4.852;2023-10-13T03:56:43;5.55;;;3.05;;
22843;SDS011;11588;51.178;4.852;2023-10-13T03:59:11;3.88;;;2.80;;
22843;SDS011;11588;51.178;4.852;2023-10-13T04:01:48;6.65;;;3.38;;
22843;SDS011;11588;51.178;4.852;2023-10-13T04:04:30;8.95;;;2.08;;
22843;SDS011;11588;51.178;4.852;2023-10-13T04:07:04;4.00;;;3.13;;
22843;SDS011;11588;51.178;4.852;2023-10-13T04:09:50;4.93;;;2.30;;
22843;SDS011;11588;51.178;4.852;2023-10-13T04:12:23;2.28;;;1.20;;
22843;SDS011;11588;51.178;4.852;2023-10-13T04:15:00;1.70;;;1.58;;
22843;SDS011;11588;51.178;4.852;2023-10-13T04:17:34;2.17;;;1.73;;
22843;SDS011;11588;51.178;4.852;2023-10-13T04:20:11;3.95;;;2.03;;
22843;SDS011;11588;51.178;4.852;2023-10-13T04:22:39;5.85;;;1.92;;
22843;SDS011;11588;51.178;4.852;2023-10-13T04:25:13;4.40;;;2.10;;
22843;SDS011;11588;51.178;4.852;2023-10-13T04:28:01;3.35;;;1.80;;
22843;SDS011;11588;51.178;4.852;2023-10-13T04:30:36;12.05;;;2.47;;
22843;SDS011;11588;51.178;4.852;2023-10-13T04:33:19;1.65;;;1.25;;
22843;SDS011;11588;51.178;4.852;2023-10-13T04:35:56;5.50;;;2.10;;
22843;SDS011;11588;51.178;4.852;2023-10-13T04:38:27;4.40;;;2.25;;
22843;SDS011;11588;51.178;4.852;2023-10-13T04:41:06;1.60;;;1.10;;
22843;SDS011;11588;51.178;4.852;2023-10-13T04:43:50;2.47;;;1.95;;
22843;SDS011;11588;51.178;4.852;2023-10-13T04:46:23;4.25;;;2.15;;
22843;SDS011;11588;51.178;4.852;2023-10-13T04:49:00;7.88;;;1.73;;
22843;SDS011;11588;51.178;4.852;2023-10-13T04:51:33;3.28;;;1.33;;
22843;SDS011;11588;51.178;4.852;2023-10-13T04:54:17;3.45;;;2.08;;
22843;SDS011;11588;51.178;4.852;2023-10-13T04:56:52;1.80;;;1.65;;
22843;SDS011;11588;51.178;4.852;2023-10-13T04:59:26;2.67;;;2.35;;
22843;SDS011;11588;51.178;4.852;2023-10-13T05:02:01;2.10;;;1.58;;
22843;SDS011;11588;51.178;4.852;2023-10-13T05:04:35;1.95;;;1.55;;
22843;SDS011;11588;51.178;4.852;2023-10-13T05:07:21;5.45;;;2.05;;
22843;SDS011;11588;51.178;4.852;2023-10-13T05:09:58;4.78;;;2.20;;
22843;SDS011;11588;51.178;4.852;2023-10-13T05:12:33;2.35;;;2.15;;
22843;SDS011;11588;51.178;4.852;2023-10-13T05:15:07;3.58;;;1.73;;
22843;SDS011;11588;51.178;4.852;2023-10-13T05:17:41;2.10;;;1.23;;
22843;SDS011;11588;51.178;4.852;2023-10-13T05:20:15;1.33;;;1.23;;
22843;SDS011;11588;51.178;4.852;2023-10-13T05:22:48;9.43;;;1.60;;
22843;SDS011;11588;51.178;4.852;2023-10-13T05:25:25;2.08;;;1.80;;
22843;SDS011;11588;51.178;4.852;2023-10-13T05:28:04;4.75;;;1.50;;
22843;SDS011;11588;51.178;4.852;2023-10-13T05:30:41;7.25;;;2.00;;
22843;SDS011;11588;51.178;4.852;2023-10-13T05:33:16;2.15;;;1.33;;
22843;SDS011;11588;51.178;4.852;2023-10-13T05:35:52;1.13;;;0.90;;
22843;SDS011;11588;51.178;4.852;2023-10-13T05:38:38;1.67;;;1.40;;
22843;SDS011;11588;51.178;4.852;2023-10-13T05:41:15;1.77;;;1.50;;
22843;SDS011;11588;51.178;4.852;2023-10-13T05:43:52;1.67;;;1.38;;
22843;SDS011;11588;51.178;4.852;2023-10-13T05:46:26;6.05;;;2.38;;
22843;SDS011;11588;51.178;4.852;2023-10-13T05:49:11;11.18;;;3.25;;
22843;SDS011;11588;51.178;4.852;2023-10-13T05:51:48;2.22;;;1.52;;
22843;SDS011;11588;51.178;4.852;2023-10-13T05:54:30;2.60;;;1.73;;
22843;SDS011;11588;51.178;4.852;2023-10-13T05:57:07;3.88;;;2.22;;
22843;SDS011;11588;51.178;4.852;2023-10-13T05:59:41;1.52;;;1.38;;
22843;SDS011;11588;51.178;4.852;2023-10-13T06:02:15;4.80;;;2.28;;
22843;SDS011;11588;51.178;4.852;2023-10-13T06:04:52;2.97;;;2.65;;
22843;SDS011;11588;51.178;4.852;2023-10-13T06:07:26;10.02;;;2.20;;
22843;SDS011;11588;51.178;4.852;2023-10-13T06:10:01;7.50;;;1.58;;
22843;SDS011;11588;51.178;4.852;2023-10-13T06:12:38;4.28;;;2.17;;
22843;SDS011;11588;51.178;4.852;2023-10-13T06:15:12;3.38;;;2.33;;
22843;SDS011;11588;51.178;4.852;2023-10-13T06:17:46;3.38;;;1.35;;
22843;SDS011;11588;51.178;4.852;2023-10-13T06:20:19;6.72;;;3.28;;
22843;SDS011;11588;51.178;4.852;2023-10-13T06:22:56;2.35;;;1.75;;
22843;SDS011;11588;51.178;4.852;2023-10-13T06:25:30;4.15;;;2.53;;
22843;SDS011;11588;51.178;4.852;2023-10-13T06:28:04;9.20;;;4.28;;
22843;SDS011;11588;51.178;4.852;2023-10-13T06:30:41;5.70;;;2.50;;
22843;SDS011;11588;51.178;4.852;2023-10-13T06:33:07;2.63;;;1.77;;
22843;SDS011;11588;51.178;4.852;2023-10-13T06:35:34;3.83;;;1.60;;
22843;SDS011;11588;51.178;4.852;2023-10-13T06:38:07;7.60;;;2.13;;
22843;SDS011;11588;51.178;4.852;2023-10-13T06:40:48;2.53;;;1.95;;
22843;SDS011;11588;51.178;4.852;2023-10-13T06:43:16;3.85;;;1.10;;
22843;SDS011;11588;51.178;4.852;2023-10-13T06:45:43;4.50;;;2.70;;
22843;SDS011;11588;51.178;4.852;2023-10-13T06:48:24;2.83;;;1.45;;
22843;SDS011;11588;51.178;4.852;2023-10-13T06:50:50;2.97;;;1.65;;
22843;SDS011;11588;51.178;4.852;2023-10-13T06:53:19;6.07;;;1.90;;
22843;SDS011;11588;51.178;4.852;2023-10-13T06:55:46;4.55;;;1.98;;
22843;SDS011;11588;51.178;4.852;2023-10-13T06:58:15;13.02;;;2.00;;
22843;SDS011;11588;51.178;4.852;2023-10-13T07:00:44;4.20;;;1.23;;
22843;SDS011;11588;51.178;4.852;2023-10-13T07:03:22;5.88;;;1.70;;
22843;SDS011;11588;51.178;4.852;2023-10-13T07:05:49;1.80;;;0.90;;
22843;SDS011;11588;51.178;4.852;2023-10-13T07:08:16;2.47;;;1.67;;
22843;SDS011;11588;51.178;4.852;2023-10-13T07:10:53;1.33;;;1.23;;
22843;SDS011;11588;51.178;4.852;2023-10-13T07:13:27;8.68;;;1.67;;
22843;SDS011;11588;51.178;4.852;2023-10-13T07:15:54;2.85;;;1.42;;
22843;SDS011;11588;51.178;4.852;2023-10-13T07:18:32;3.08;;;1.65;;
22843;SDS011;11588;51.178;4.852;2023-10-13T07:21:05;3.15;;;1.55;;
22843;SDS011;11588;51.178;4.852;2023-10-13T07:23:37;0.50;;;0.50;;
22843;SDS011;11588;51.178;4.852;2023-10-13T07:26:04;4.75;;;1.95;;
22843;SDS011;11588;51.178;4.852;2023-10-13T07:28:32;10.38;;;1.75;;
22843;SDS011;11588;51.178;4.852;2023-10-13T07:31:04;2.88;;;0.93;;
22843;SDS011;11588;51.178;4.852;2023-10-13T07:33:41;1.88;;;1.70;;
22843;SDS011;11588;51.178;4.852;2023-10-13T07:36:09;2.67;;;1.80;;
22843;SDS011;11588;51.178;4.852;2023-10-13T07:38:52;2.50;;;2.17;;
22843;SDS011;11588;51.178;4.852;2023-10-13T07:41:40;0.82;;;0.82;;
22843;SDS011;11588;51.178;4.852;2023-10-13T07:44:08;2.00;;;1.15;;
22843;SDS011;11588;51.178;4.852;2023-10-13T07:46:41;1.95;;;1.13;;
22843;SDS011;11588;51.178;4.852;2023-10-13T07:49:08;1.77;;;1.55;;
22843;SDS011;11588;51.178;4.852;2023-10-13T07:51:36;3.22;;;1.50;;
22843;SDS011;11588;51.178;4.852;2023-10-13T07:54:23;7.38;;;3.22;;
22843;SDS011;11588;51.178;4.852;2023-10-13T07:56:50;9.82;;;2.38;;
22843;SDS011;11588;51.178;4.852;2023-10-13T07:59:17;6.40;;;2.42;;
22843;SDS011;11588;51.178;4.852;2023-10-13T08:01:50;10.63;;;1.63;;
22843;SDS011;11588;51.178;4.852;2023-10-13T08:04:25;2.92;;;1.38;;
22843;SDS011;11588;51.178;4.852;2023-10-13T08:06:54;4.20;;;2.40;;
22843;SDS011;11588;51.178;4.852;2023-10-13T08:09:31;15.88;;;1.80;;
22843;SDS011;11588;51.178;4.852;2023-10-13T08:12:08;2.78;;;1.60;;
22843;SDS011;11588;51.178;4.852;2023-10-13T08:14:38;9.32;;;1.30;;
22843;SDS011;11588;51.178;4.852;2023-10-13T08:17:07;4.90;;;1.67;;
22843;SDS011;11588;51.178;4.852;2023-10-13T08:19:35;5.40;;;2.45;;
22843;SDS011;11588;51.178;4.852;2023-10-13T08:22:12;1.45;;;0.77;;
22843;SDS011;11588;51.178;4.852;2023-10-13T08:24:47;5.65;;;1.67;;
22843;SDS011;11588;51.178;4.852;2023-10-13T08:27:33;6.22;;;1.75;;
22843;SDS011;11588;51.178;4.852;2023-10-13T08:30:01;2.13;;;0.80;;
22843;SDS011;11588;51.178;4.852;2023-10-13T08:32:34;7.03;;;1.23;;
22843;SDS011;11588;51.178;4.852;2023-10-13T08:35:03;1.52;;;1.33;;
22843;SDS011;11588;51.178;4.852;2023-10-13T08:37:40;1.75;;;1.13;;
22843;SDS011;11588;51.178;4.852;2023-10-13T08:40:16;3.80;;;1.85;;
22843;SDS011;11588;51.178;4.852;2023-10-13T08:42:49;2.83;;;1.88;;
22843;SDS011;11588;51.178;4.852;2023-10-13T08:45:25;3.53;;;0.85;;
22843;SDS011;11588;51.178;4.852;2023-10-13T08:48:15;2.45;;;1.52;;
22843;SDS011;11588;51.178;4.852;2023-10-13T08:50:44;0.85;;;0.80;;
22843;SDS011;11588;51.178;4.852;2023-10-13T08:53:23;8.45;;;2.05;;
22843;SDS011;11588;51.178;4.852;2023-10-13T08:56:01;1.85;;;1.08;;
22843;SDS011;11588;51.178;4.852;2023-10-13T08:58:35;18.20;;;2.90;;
22843;SDS011;11588;51.178;4.852;2023-10-13T09:01:11;5.20;;;1.02;;
22843;SDS011;11588;51.178;4.852;2023-10-13T09:03:40;3.17;;;1.90;;
22843;SDS011;11588;51.178;4.852;2023-10-13T09:06:09;12.27;;;2.47;;
22843;SDS011;11588;51.178;4.852;2023-10-13T09:08:41;3.58;;;1.42;;
22843;SDS011;11588;51.178;4.852;2023-10-13T09:11:27;1.98;;;1.00;;
22843;SDS011;11588;51.178;4.852;2023-10-13T09:17:02;1.58;;;0.90;;
22843;SDS011;11588;51.178;4.852;2023-10-13T09:24:54;1.27;;;1.17;;
22843;SDS011;11588;51.178;4.852;2023-10-13T09:27:27;2.28;;;1.35;;
22843;SDS011;11588;51.178;4.852;2023-10-13T09:29:57;3.67;;;1.23;;
22843;SDS011;11588;51.178;4.852;2023-10-13T09:32:24;3.17;;;1.10;;
22843;SDS011;11588;51.178;4.852;2023-10-13T09:34:52;3.28;;;0.90;;
22843;SDS011;11588;51.178;4.852;2023-10-13T09:37:20;2.05;;;1.05;;
22843;SDS011;11588;51.178;4.852;2023-10-13T09:39:48;1.40;;;1.30;;
22843;SDS011;11588;51.178;4.852;2023-10-13T09:42:21;3.42;;;1.42;;
22843;SDS011;11588;51.178;4.852;2023-10-13T09:44:50;1.25;;;0.95;;
22843;SDS011;11588;51.178;4.852;2023-10-13T09:47:20;6.20;;;1.33;;
22843;SDS011;11588;51.178;4.852;2023-10-13T09:49:53;4.38;;;1.25;;
22843;SDS011;11588;51.178;4.852;2023-10-13T09:52:27;1.13;;;0.65;;
22843;SDS011;11588;51.178;4.852;2023-10-13T09:54:58;6.22;;;1.75;;
22843;SDS011;11588;51.178;4.852;2023-10-13T09:57:31;3.65;;;1.25;;
22843;SDS011;11588;51.178;4.852;2023-10-13T10:00:02;4.05;;;1.58;;
22843;SDS011;11588;51.178;4.852;2023-10-13T10:02:44;6.95;;;1.95;;
22843;SDS011;11588;51.178;4.852;2023-10-13T10:05:11;5.40;;;1.50;;
22843;SDS011;11588;51.178;4.852;2023-10-13T10:07:40;1.40;;;0.90;;
22843;SDS011;11588;51.178;4.852;2023-10-13T10:10:07;1.85;;;1.33;;
22843;SDS011;11588;51.178;4.852;2023-10-13T10:17:47;1.05;;;0.93;;
22843;SDS011;11588;51.178;4.852;2023-10-13T10:20:16;3.53;;;1.20;;
22843;SDS011;11588;51.178;4.852;2023-10-13T10:25:29;3.17;;;1.13;;
22843;SDS011;11588;51.178;4.852;2023-10-13T10:28:02;6.63;;;2.33;;
22843;SDS011;11588;51.178;4.852;2023-10-13T10:30:33;3.08;;;1.27;;
22843;SDS011;11588;51.178;4.852;2023-10-13T10:32:59;12.48;;;2.08;;
22843;SDS011;11588;51.178;4.852;2023-10-13T10:35:25;4.82;;;1.73;;
22843;SDS011;11588;51.178;4.852;2023-10-13T10:38:09;19.85;;;2.20;;
22843;SDS011;11588;51.178;4.852;2023-10-13T10:45:52;2.85;;;1.20;;
22843;SDS011;11588;51.178;4.852;2023-10-13T10:48:26;13.80;;;1.98;;
22843;SDS011;11588;51.178;4.852;2023-10-13T10:51:00;4.35;;;1.83;;
22843;SDS011;11588;51.178;4.852;2023-10-13T10:53:33;1.10;;;0.90;;
22843;SDS011;11588;51.178;4.852;2023-10-13T10:56:04;6.72;;;1.52;;
22843;SDS011;11588;51.178;4.852;2023-10-13T10:58:46;2.85;;;0.93;;
22843;SDS011;11588;51.178;4.852;2023-10-13T11:01:14;1.77;;;0.95;;
22843;SDS011;11588;51.178;4.852;2023-10-13T11:06:37;4.55;;;1.92;;
22843;SDS011;11588;51.178;4.852;2023-10-13T11:09:13;2.85;;;1.38;;
22843;SDS011;11588;51.178;4.852;2023-10-13T11:11:47;4.45;;;1.27;;
22843;SDS011;11588;51.178;4.852;2023-10-13T11:14:20;2.10;;;1.27;;
22843;SDS011;11588;51.178;4.852;2023-10-13T11:16:50;7.50;;;2.35;;
22843;SDS011;11588;51.178;4.852;2023-10-13T11:19:21;3.80;;;1.85;;
22843;SDS011;11588;51.178;4.852;2023-10-13T11:21:53;4.00;;;1.33;;
22843;SDS011;11588;51.178;4.852;2023-10-13T11:24:19;6.38;;;2.50;;
22843;SDS011;11588;51.178;4.852;2023-10-13T11:26:49;6.28;;;0.95;;
22843;SDS011;11588;51.178;4.852;2023-10-13T11:29:16;17.52;;;1.98;;
22843;SDS011;11588;51.178;4.852;2023-10-13T11:31:46;1.67;;;1.10;;
22843;SDS011;11588;51.178;4.852;2023-10-13T11:34:12;2.25;;;1.65;;
22843;SDS011;11588;51.178;4.852;2023-10-13T11:36:46;4.57;;;1.92;;
22843;SDS011;11588;51.178;4.852;2023-10-13T11:39:12;1.80;;;1.33;;
22843;SDS011;11588;51.178;4.852;2023-10-13T11:41:52;8.20;;;1.27;;
22843;SDS011;11588;51.178;4.852;2023-10-13T11:44:21;6.20;;;1.45;;
22843;SDS011;11588;51.178;4.852;2023-10-13T11:46:52;1.50;;;0.95;;
22843;SDS011;11588;51.178;4.852;2023-10-13T11:49:24;7.68;;;1.65;;
22843;SDS011;11588;51.178;4.852;2023-10-13T11:52:02;3.25;;;1.65;;
22843;SDS011;11588;51.178;4.852;2023-10-13T11:54:37;6.20;;;2.17;;
22843;SDS011;11588;51.178;4.852;2023-10-13T11:57:10;16.35;;;2.50;;
22843;SDS011;11588;51.178;4.852;2023-10-13T11:59:37;7.30;;;1.83;;
22843;SDS011;11588;51.178;4.852;2023-10-13T12:02:11;7.50;;;2.15;;
22843;SDS011;11588;51.178;4.852;2023-10-13T12:04:45;5.53;;;1.70;;
22843;SDS011;11588;51.178;4.852;2023-10-13T12:07:17;3.40;;;2.13;;
22843;SDS011;11588;51.178;4.852;2023-10-13T12:09:51;3.75;;;1.77;;
22843;SDS011;11588;51.178;4.852;2023-10-13T12:12:32;3.15;;;1.33;;
22843;SDS011;11588;51.178;4.852;2023-10-13T12:15:09;4.93;;;2.05;;
22843;SDS011;11588;51.178;4.852;2023-10-13T12:17:43;2.58;;;1.67;;
22843;SDS011;11588;51.178;4.852;2023-10-13T12:20:10;2.35;;;1.75;;
22843;SDS011;11588;51.178;4.852;2023-10-13T12:22:36;0.75;;;0.73;;
22843;SDS011;11588;51.178;4.852;2023-10-13T12:25:11;1.95;;;1.30;;
22843;SDS011;11588;51.178;4.852;2023-10-13T12:27:45;2.08;;;1.42;;
22843;SDS011;11588;51.178;4.852;2023-10-13T12:30:12;4.20;;;1.08;;
22843;SDS011;11588;51.178;4.852;2023-10-13T12:32:40;3.80;;;1.55;;
22843;SDS011;11588;51.178;4.852;2023-10-13T12:35:13;1.15;;;0.77;;
22843;SDS011;11588;51.178;4.852;2023-10-13T12:37:57;13.10;;;1.17;;
22843;SDS011;11588;51.178;4.852;2023-10-13T12:40:34;3.83;;;1.98;;
22843;SDS011;11588;51.178;4.852;2023-10-13T12:43:08;2.90;;;1.13;;
22843;SDS011;11588;51.178;4.852;2023-10-13T12:45:44;1.83;;;1.17;;
22843;SDS011;11588;51.178;4.852;2023-10-13T12:48:17;3.72;;;1.33;;
22843;SDS011;11588;51.178;4.852;2023-10-13T12:50:51;1.77;;;1.27;;
22843;SDS011;11588;51.178;4.852;2023-10-13T12:53:35;3.33;;;2.08;;
22843;SDS011;11588;51.178;4.852;2023-10-13T12:56:01;5.13;;;1.80;;
22843;SDS011;11588;51.178;4.852;2023-10-13T12:58:30;9.13;;;0.98;;
22843;SDS011;11588;51.178;4.852;2023-10-13T13:01:00;1.30;;;1.20;;
22843;SDS011;11588;51.178;4.852;2023-10-13T13:03:34;4.15;;;1.33;;
22843;SDS011;11588;51.178;4.852;2023-10-13T13:06:00;3.08;;;0.77;;
22843;SDS011;11588;51.178;4.852;2023-10-13T13:08:38;2.10;;;1.10;;
22843;SDS011;11588;51.178;4.852;2023-10-13T13:11:11;3.92;;;1.55;;
22843;SDS011;11588;51.178;4.852;2023-10-13T13:13:37;6.88;;;2.03;;
22843;SDS011;11588;51.178;4.852;2023-10-13T13:16:04;2.45;;;1.63;;
22843;SDS011;11588;51.178;4.852;2023-10-13T13:18:31;10.30;;;1.38;;
22843;SDS011;11588;51.178;4.852;2023-10-13T13:20:57;1.90;;;1.25;;
22843;SDS011;11588;51.178;4.852;2023-10-13T13:23:23;4.25;;;1.85;;
22843;SDS011;11588;51.178;4.852;2023-10-13T13:25:52;1.40;;;1.17;;
22843;SDS011;11588;51.178;4.852;2023-10-13T13:28:23;3.22;;;1.55;;
22843;SDS011;11588;51.178;4.852;2023-10-13T13:30:50;4.65;;;1.90;;
22843;SDS011;11588;51.178;4.852;2023-10-13T13:33:17;7.20;;;2.00;;
22843;SDS011;11588;51.178;4.852;2023-10-13T13:35:57;1.38;;;0.80;;
22843;SDS011;11588;51.178;4.852;2023-10-13T13:38:26;5.68;;;1.85;;
22843;SDS011;11588;51.178;4.852;2023-10-13T13:40:59;9.98;;;1.67;;
22843;SDS011;11588;51.178;4.852;2023-10-13T13:43:28;2.58;;;1.38;;
22843;SDS011;11588;51.178;4.852;2023-10-13T13:46:05;1.50;;;1.25;;
22843;SDS011;11588;51.178;4.852;2023-10-13T13:48:36;1.98;;;1.77;;
22843;SDS011;11588;51.178;4.852;2023-10-13T13:51:03;2.55;;;0.93;;
22843;SDS011;11588;51.178;4.852;2023-10-13T13:53:31;8.50;;;2.10;;
22843;SDS011;11588;51.178;4.852;2023-10-13T13:56:01;3.63;;;1.48;;
22843;SDS011;11588;51.178;4.852;2023-10-13T13:58:29;2.83;;;1.17;;
22843;SDS011;11588;51.178;4.852;2023-10-13T14:03:37;2.50;;;1.60;;
22843;SDS011;11588;51.178;4.852;2023-10-13T14:06:18;2.50;;;0.77;;
22843;SDS011;11588;51.178;4.852;2023-10-13T14:08:50;2.17;;;1.30;;
22843;SDS011;11588;51.178;4.852;2023-10-13T14:11:21;5.55;;;1.30;;
22843;SDS011;11588;51.178;4.852;2023-10-13T14:14:08;0.52;;;0.38;;
22843;SDS011;11588;51.178;4.852;2023-10-13T14:16:42;0.70;;;0.60;;
22843;SDS011;11588;51.178;4.852;2023-10-13T14:19:15;5.78;;;2.05;;
22843;SDS011;11588;51.178;4.852;2023-10-13T14:21:54;1.15;;;1.05;;
22843;SDS011;11588;51.178;4.852;2023-10-13T14:24:22;1.52;;;1.02;;
22843;SDS011;11588;51.178;4.852;2023-10-13T14:26:59;0.85;;;0.73;;
22843;SDS011;11588;51.178;4.852;2023-10-13T14:29:37;3.90;;;2.05;;
22843;SDS011;11588;51.178;4.852;2023-10-13T14:32:07;6.47;;;1.60;;
22843;SDS011;11588;51.178;4.852;2023-10-13T14:37:05;1.33;;;1.23;;
22843;SDS011;11588;51.178;4.852;2023-10-13T14:39:31;5.53;;;2.30;;
22843;SDS011;11588;51.178;4.852;2023-10-13T14:42:02;5.22;;;1.08;;
22843;SDS011;11588;51.178;4.852;2023-10-13T14:44:29;2.08;;;0.80;;
22843;SDS011;11588;51.178;4.852;2023-10-13T14:46:56;3.67;;;1.13;;
22843;SDS011;11588;51.178;4.852;2023-10-13T14:49:22;2.42;;;1.27;;
22843;SDS011;11588;51.178;4.852;2023-10-13T14:51:49;4.57;;;2.50;;
22843;SDS011;11588;51.178;4.852;2023-10-13T14:54:16;3.60;;;1.73;;
22843;SDS011;11588;51.178;4.852;2023-10-13T14:56:43;4.53;;;1.70;;
22843;SDS011;11588;51.178;4.852;2023-10-13T14:59:09;4.90;;;1.30;;
22843;SDS011;11588;51.178;4.852;2023-10-13T15:01:46;2.15;;;1.40;;
22843;SDS011;11588;51.178;4.852;2023-10-13T15:04:16;9.32;;;1.70;;
22843;SDS011;11588;51.178;4.852;2023-10-13T15:06:42;2.00;;;1.10;;
22843;SDS011;11588;51.178;4.852;2023-10-13T15:09:10;2.78;;;1.38;;
22843;SDS011;11588;51.178;4.852;2023-10-13T15:11:37;5.45;;;1.42;;
22843;SDS011;11588;51.178;4.852;2023-10-13T15:14:04;1.38;;;1.25;;
22843;SDS011;11588;51.178;4.852;2023-10-13T15:16:33;3.65;;;1.15;;
22843;SDS011;11588;51.178;4.852;2023-10-13T15:19:00;2.63;;;1.65;;
22843;SDS011;11588;51.178;4.852;2023-10-13T15:21:29;2.30;;;1.58;;
22843;SDS011;11588;51.178;4.852;2023-10-13T15:24:03;1.63;;;1.00;;
22843;SDS011;11588;51.178;4.852;2023-10-13T15:26:30;2.40;;;1.20;;
22843;SDS011;11588;51.178;4.852;2023-10-13T15:28:57;3.00;;;1.52;;
22843;SDS011;11588;51.178;4.852;2023-10-13T15:31:24;2.05;;;1.85;;
22843;SDS011;11588;51.178;4.852;2023-10-13T15:34:01;2.00;;;1.05;;
22843;SDS011;11588;51.178;4.852;2023-10-13T15:36:40;3.40;;;1.27;;
22843;SDS011;11588;51.178;4.852;2023-10-13T15:39:09;1.27;;;0.98;;
22843;SDS011;11588;51.178;4.852;2023-10-13T15:41:37;6.72;;;1.23;;
22843;SDS011;11588;51.178;4.852;2023-10-13T15:44:05;1.98;;;1.15;;
22843;SDS011;11588;51.178;4.852;2023-10-13T15:46:37;4.20;;;1.80;;
22843;SDS011;11588;51.178;4.852;2023-10-13T15:49:04;3.42;;;2.10;;